Time;durP1;ratioP1;P1;durP2;ratioP2;P2;SDS_P1;SDS_P2;PMS_P1;PMS_P2;Temp;Humidity;BMP_temperature;BMP_pressure;BME280_temperature;BME280_humidity;BME280_pressure;Samples;Min_cycle;Max_cycle;Signal;HPM_P1;HPM_P2
2021/05/26 00:03:30;;;;;;;1.58;0.65;;;;;;;10.29;55.00;96458.59;5140629;57;20121;-74
2021/05/26 00:08:34;;;;;;;0.65;0.65;;;;;;;9.95;57.31;96459.53;5140639;57;20143;-74
2021/05/26 00:13:38;;;;;;;1.80;0.77;;;;;;;9.94;56.50;96452.47;5140847;57;20223;-74
2021/05/26 00:18:41;;;;;;;0.57;0.57;;;;;;;9.85;57.43;96444.16;5140472;57;20144;-74
2021/05/26 00:23:44;;;;;;;0.70;0.70;;;;;;;9.76;57.52;96435.84;5140492;57;20620;-74
2021/05/26 00:28:47;;;;;;;0.68;0.68;;;;;;;9.70;57.80;96438.41;5140629;57;20147;-74
2021/05/26 00:33:50;;;;;;;1.23;0.77;;;;;;;9.68;58.53;96418.03;5140684;57;20134;-74
2021/05/26 00:38:52;;;;;;;0.82;0.63;;;;;;;9.69;57.79;96427.84;5140389;57;20126;-74
2021/05/26 00:43:56;;;;;;;0.90;0.75;;;;;;;9.52;59.15;96424.53;5140471;57;20104;-74
2021/05/26 00:48:59;;;;;;;0.73;0.70;;;;;;;9.50;57.97;96415.94;5146468;57;20122;-74
2021/05/26 00:54:02;;;;;;;1.38;0.70;;;;;;;9.63;57.78;96416.66;5149188;57;20140;-74
2021/05/26 00:59:06;;;;;;;0.60;0.60;;;;;;;9.97;55.85;96396.38;5140565;57;20126;-74
2021/05/26 01:04:09;;;;;;;0.85;0.52;;;;;;;10.06;55.54;96399.16;5140104;57;20126;-74
2021/05/26 01:09:12;;;;;;;1.05;0.95;;;;;;;9.81;56.50;96391.09;5139688;57;20143;-74
2021/05/26 01:14:14;;;;;;;0.60;0.60;;;;;;;9.70;57.33;96393.53;5140217;57;20139;-74
2021/05/26 01:19:17;;;;;;;0.73;0.70;;;;;;;9.46;58.21;96389.72;5139710;57;20148;-74
2021/05/26 01:24:20;;;;;;;0.57;0.57;;;;;;;9.24;59.96;96381.50;5139642;57;20122;-74
2021/05/26 01:29:22;;;;;;;0.80;0.80;;;;;;;9.08;60.57;96370.69;5139958;57;20613;-74
2021/05/26 01:34:25;;;;;;;0.85;0.63;;;;;;;8.98;61.63;96367.13;5139664;57;20649;-74
2021/05/26 01:39:28;;;;;;;0.55;0.50;;;;;;;8.87;62.09;96371.47;5139720;57;20666;-74
2021/05/26 01:44:34;;;;;;;0.50;0.50;;;;;;;8.37;64.21;96372.50;5140398;57;20135;-74
2021/05/26 01:49:37;;;;;;;2.45;0.80;;;;;;;8.08;66.09;96356.16;5140183;57;20152;-74
2021/05/26 01:54:40;;;;;;;1.67;0.60;;;;;;;8.13;65.38;96349.31;5139310;57;20626;-74
2021/05/26 01:59:42;;;;;;;0.95;0.80;;;;;;;8.00;65.65;96349.38;5139415;57;20126;-74
2021/05/26 02:04:45;;;;;;;1.73;0.95;;;;;;;8.02;66.08;96352.44;5138979;57;20139;-74
2021/05/26 02:09:48;;;;;;;1.65;0.88;;;;;;;7.73;66.76;96346.34;5139374;57;20704;-74
2021/05/26 02:14:52;;;;;;;0.98;0.63;;;;;;;7.79;67.15;96345.34;5139279;57;20139;-74
2021/05/26 02:19:55;;;;;;;1.50;0.80;;;;;;;7.67;66.83;96343.38;5139426;57;20174;-74
2021/05/26 02:24:58;;;;;;;0.85;0.75;;;;;;;7.71;66.65;96344.03;5140825;57;20139;-74
2021/05/26 02:30:00;;;;;;;0.60;0.60;;;;;;;7.73;67.04;96343.59;5140184;57;20770;-74
2021/05/26 02:35:04;;;;;;;0.60;0.60;;;;;;;7.69;67.54;96345.69;5139853;57;20130;-74
2021/05/26 02:40:07;;;;;;;2.92;0.75;;;;;;;7.68;66.86;96333.16;5130467;57;20113;-74
2021/05/26 02:45:11;;;;;;;0.90;0.63;;;;;;;7.80;66.04;96324.13;5138054;57;20121;-73
2021/05/26 02:50:17;;;;;;;1.85;0.90;;;;;;;7.88;66.50;96325.41;5138444;57;20125;-74
2021/05/26 02:55:22;;;;;;;2.65;0.75;;;;;;;7.69;67.01;96323.69;5138518;57;20144;-74
2021/05/26 03:00:25;;;;;;;5.82;1.05;;;;;;;7.70;66.73;96314.22;5138740;57;20603;-73
2021/05/26 03:05:28;;;;;;;3.38;0.80;;;;;;;7.73;66.32;96311.38;5129728;57;20135;-74
2021/05/26 03:10:31;;;;;;;0.60;0.60;;;;;;;7.62;66.12;96301.94;5138263;57;20135;-73
2021/05/26 03:15:33;;;;;;;1.35;0.60;;;;;;;7.58;66.37;96285.53;5138857;57;20131;-74
2021/05/26 03:20:36;;;;;;;1.48;0.70;;;;;;;7.61;65.80;96301.16;5141353;57;20121;-74
2021/05/26 03:25:40;;;;;;;0.82;0.75;;;;;;;7.60;65.68;96301.59;5141438;57;20140;-73
2021/05/26 03:30:44;;;;;;;0.80;0.52;;;;;;;7.69;65.53;96296.19;5141217;57;20130;-73
2021/05/26 03:35:46;;;;;;;0.60;0.60;;;;;;;7.71;65.64;96302.75;5141358;57;20113;-74
2021/05/26 03:40:49;;;;;;;1.85;0.77;;;;;;;7.76;65.97;96304.97;5141100;57;20320;-74
2021/05/26 03:45:52;;;;;;;0.60;0.60;;;;;;;7.89;65.02;96288.44;5140838;57;20236;-73
2021/05/26 03:50:55;;;;;;;0.60;0.60;;;;;;;8.00;64.33;96277.06;5140977;57;20117;-74
2021/05/26 03:55:57;;;;;;;1.38;0.65;;;;;;;8.39;64.29;96293.75;5140713;57;20697;-74
2021/05/26 04:01:00;;;;;;;0.75;0.55;;;;;;;8.75;62.98;96284.19;5140845;57;20122;-73
2021/05/26 04:06:03;;;;;;;0.82;0.65;;;;;;;9.19;61.82;96274.56;5140661;57;20112;-74
2021/05/26 04:11:06;;;;;;;0.65;0.60;;;;;;;9.39;62.22;96291.50;5140862;57;20113;-74
2021/05/26 04:16:09;;;;;;;3.42;0.73;;;;;;;9.63;61.15;96288.97;5141091;57;20130;-74
2021/05/26 04:21:11;;;;;;;0.65;0.60;;;;;;;9.81;60.27;96289.00;5140908;57;20216;-73
2021/05/26 04:26:14;;;;;;;2.35;0.80;;;;;;;9.76;60.27;96282.09;5140022;57;20137;-74
2021/05/26 04:31:17;;;;;;;0.75;0.70;;;;;;;9.66;60.93;96277.78;5131589;57;20117;-74
2021/05/26 04:36:20;;;;;;;0.80;0.60;;;;;;;9.63;61.68;96284.22;5140368;57;20642;-74
2021/05/26 04:41:22;;;;;;;1.65;0.68;;;;;;;9.70;60.87;96277.63;5131466;57;20654;-73
2021/05/26 04:46:25;;;;;;;0.60;0.60;;;;;;;9.90;60.06;96284.25;5140450;57;20127;-74
2021/05/26 04:51:28;;;;;;;2.00;0.65;;;;;;;10.16;59.04;96289.50;5140701;57;20125;-74
2021/05/26 04:56:30;;;;;;;1.48;0.70;;;;;;;10.46;58.47;96285.81;5139998;57;20121;-74
2021/05/26 05:01:33;;;;;;;2.17;0.70;;;;;;;10.62;56.86;96263.38;5139879;57;20122;-73
2021/05/26 05:06:36;;;;;;;1.38;0.50;;;;;;;11.32;55.74;96275.91;5140494;57;20140;-74
2021/05/26 05:11:39;;;;;;;1.42;0.70;;;;;;;11.04;57.22;96274.47;5131655;57;20112;-74
2021/05/26 05:16:42;;;;;;;2.25;0.80;;;;;;;11.58;55.96;96276.97;5139731;57;20125;-74
2021/05/26 05:21:45;;;;;;;1.05;0.73;;;;;;;11.75;55.43;96280.16;5139506;57;20117;-74
2021/05/26 05:26:47;;;;;;;1.17;0.93;;;;;;;12.02;54.51;96275.22;5132623;57;20139;-74
2021/05/26 05:31:51;;;;;;;1.00;0.82;;;;;;;12.23;53.61;96270.59;5151446;57;20156;-74
2021/05/26 05:36:53;;;;;;;0.82;0.70;;;;;;;12.33;53.53;96276.78;5143670;57;20139;-74
2021/05/26 05:41:57;;;;;;;0.85;0.70;;;;;;;12.51;52.23;96269.09;5138961;57;20626;-74
2021/05/26 05:46:59;;;;;;;1.08;0.65;;;;;;;12.54;52.44;96265.38;5139348;57;20130;-74
2021/05/26 05:52:02;;;;;;;2.42;0.70;;;;;;;12.97;51.29;96269.41;5130368;57;20906;-74
2021/05/26 05:57:06;;;;;;;1.10;0.60;;;;;;;13.09;51.07;96259.28;5139180;57;20116;-74
2021/05/26 06:02:09;;;;;;;1.77;0.68;;;;;;;13.30;50.12;96256.09;5139263;57;20122;-74
2021/05/26 06:07:12;;;;;;;0.80;0.80;;;;;;;13.65;49.53;96265.19;5137847;57;20126;-73
2021/05/26 06:12:14;;;;;;;1.58;0.68;;;;;;;13.48;50.50;96263.41;5138255;57;20135;-73
2021/05/26 06:17:17;;;;;;;1.80;0.70;;;;;;;13.84;49.00;96260.13;5136421;57;20121;-74
2021/05/26 06:22:20;;;;;;;1.00;0.60;;;;;;;13.96;49.13;96259.03;5138673;57;20874;-73
2021/05/26 06:27:22;;;;;;;0.80;0.60;;;;;;;14.19;47.25;96260.84;5137747;57;20139;-74
2021/05/26 06:32:25;;;;;;;2.70;0.80;;;;;;;14.32;50.30;96255.72;5138325;57;20126;-74
2021/05/26 06:37:27;;;;;;;3.25;0.90;;;;;;;15.05;46.86;96252.38;5138317;57;20130;-74
2021/05/26 06:42:30;;;;;;;3.03;0.77;;;;;;;15.37;45.85;96242.00;5138269;57;20140;-74
2021/05/26 06:47:34;;;;;;;0.57;0.57;;;;;;;15.48;45.63;96239.31;5138243;57;20130;-73
2021/05/26 06:52:36;;;;;;;0.98;0.70;;;;;;;15.73;42.69;96237.69;5132366;57;20144;-74
2021/05/26 06:57:40;;;;;;;1.58;0.68;;;;;;;15.67;42.97;96220.19;5141475;57;20126;-75
2021/05/26 07:02:43;;;;;;;0.52;0.52;;;;;;;15.48;44.09;96236.53;5140536;57;20662;-75
2021/05/26 07:07:46;;;;;;;2.50;0.60;;;;;;;15.00;45.69;96224.50;5141343;57;20135;-74
2021/05/26 07:12:50;;;;;;;1.05;0.47;;;;;;;15.22;44.79;96224.66;5141155;57;20777;-74
2021/05/26 07:17:55;;;;;;;1.17;0.77;;;;;;;15.01;45.93;96221.25;5132841;57;20121;-75
2021/05/26 07:22:58;;;;;;;2.20;0.80;;;;;;;15.16;44.05;96209.94;5141259;57;20149;-74
2021/05/26 07:28:02;;;;;;;0.47;0.40;;;;;;;15.39;45.73;96208.84;5141247;57;20148;-74
2021/05/26 07:33:05;;;;;;;0.57;0.57;;;;;;;16.11;43.89;96200.09;5139474;57;20128;-74
2021/05/26 07:38:07;;;;;;;1.60;0.57;;;;;;;16.89;42.39;96199.00;5140223;57;20130;-74
2021/05/26 07:43:10;;;;;;;0.60;0.60;;;;;;;16.88;41.54;96194.72;5140748;57;20144;-75
2021/05/26 07:48:12;;;;;;;1.10;0.75;;;;;;;16.84;43.12;96187.84;5141151;57;20704;-74
2021/05/26 07:53:15;;;;;;;1.35;0.77;;;;;;;17.23;41.04;96185.06;5138824;57;20905;-75
2021/05/26 07:58:18;;;;;;;3.42;0.73;;;;;;;16.77;42.65;96177.97;5138074;57;20139;-75
2021/05/26 08:03:25;;;;;;;1.95;0.77;;;;;;;16.70;41.06;96167.31;5138768;57;20697;-75
2021/05/26 08:08:30;;;;;;;2.20;0.60;;;;;;;16.89;41.90;96179.47;5137425;57;20139;-74
2021/05/26 08:13:33;;;;;;;2.22;0.80;;;;;;;17.15;41.34;96166.03;5130074;57;20698;-74
2021/05/26 08:18:36;;;;;;;1.30;0.82;;;;;;;16.79;41.85;96169.84;5138788;57;20131;-75
2021/05/26 08:23:39;;;;;;;2.67;0.57;;;;;;;16.53;42.01;96155.38;5138306;57;20160;-75
2021/05/26 08:28:43;;;;;;;8.90;1.08;;;;;;;16.35;41.69;96156.56;5140350;57;20679;-74
2021/05/26 08:33:46;;;;;;;1.48;0.50;;;;;;;16.28;40.72;96159.09;5139391;57;20135;-74
2021/05/26 08:38:49;;;;;;;0.85;0.73;;;;;;;16.03;40.59;96141.31;5140667;57;20723;-74
2021/05/26 08:43:52;;;;;;;3.42;0.90;;;;;;;16.63;42.46;96147.50;5140255;57;20108;-74
2021/05/26 08:49:01;;;;;;;1.67;1.00;;;;;;;16.74;40.90;96128.75;5140163;57;20122;-74
2021/05/26 08:54:04;;;;;;;0.80;0.68;;;;;;;17.02;38.71;96137.88;5139732;57;20616;-75
2021/05/26 08:59:07;;;;;;;2.72;0.75;;;;;;;16.55;42.08;96143.69;5139859;57;20125;-75
2021/05/26 09:04:25;;;;;;;2.30;0.70;;;;;;;16.08;41.62;96145.38;5139364;57;20121;-75
2021/05/26 09:09:51;;;;;;;3.42;1.00;;;;;;;16.08;42.75;96125.88;5139523;57;20121;-74
2021/05/26 09:14:55;;;;;;;1.98;0.68;;;;;;;16.29;42.13;96129.94;5138161;57;20150;-75
2021/05/26 09:20:24;;;;;;;0.70;0.70;;;;;;;16.44;41.49;96138.84;5130848;57;20130;-75
2021/05/26 09:25:27;;;;;;;;;;;;;;;16.61;41.92;96128.50;5138847;57;20122;-75
2021/05/26 09:30:32;;;;;;;1.23;0.70;;;;;;;16.41;43.01;96128.69;5138757;57;20013;-75
2021/05/26 09:35:35;;;;;;;0.80;0.75;;;;;;;16.72;41.55;96106.16;5138129;57;20122;-75
2021/05/26 09:40:38;;;;;;;2.30;0.80;;;;;;;16.99;43.27;96099.03;5130158;57;20117;-75
2021/05/26 09:45:41;;;;;;;1.60;0.70;;;;;;;17.43;39.57;96084.97;5137973;57;20670;-75
2021/05/26 09:50:57;;;;;;;1.25;0.75;;;;;;;18.12;40.67;96099.66;5138407;57;20745;-75
2021/05/26 09:56:00;;;;;;;1.23;0.80;;;;;;;18.87;40.26;96091.72;5138667;57;20134;-75
2021/05/26 10:01:03;;;;;;;0.93;0.73;;;;;;;18.72;37.91;96114.53;5129690;57;20121;-75
2021/05/26 10:06:06;;;;;;;1.92;0.82;;;;;;;17.47;40.71;96104.25;5137615;57;20135;-75
2021/05/26 10:11:09;;;;;;;0.55;0.55;;;;;;;18.65;40.86;96103.13;5135430;57;20671;-75
2021/05/26 10:16:19;;;;;;;2.50;1.00;;;;;;;18.79;39.98;96107.59;5156563;57;20217;-74
2021/05/26 10:21:23;;;;;;;2.38;0.77;;;;;;;18.56;38.37;96099.38;5135097;57;20130;-74
2021/05/26 10:26:51;;;;;;;1.60;0.90;;;;;;;18.80;37.97;96097.91;5136225;57;20126;-74
2021/05/26 10:31:58;;;;;;;0.90;0.87;;;;;;;18.57;39.89;96106.50;5133980;57;20117;-74
2021/05/26 10:37:03;;;;;;;0.63;0.63;;;;;;;17.57;40.75;96102.72;5136758;57;20696;-74
2021/05/26 10:42:23;;;;;;;2.53;0.90;;;;;;;16.81;42.57;96088.41;5120465;57;20221;-74
2021/05/26 10:47:38;;;;;;;2.85;0.85;;;;;;;16.78;41.80;96075.47;5135036;57;20236;-74
2021/05/26 10:52:56;;;;;;;1.30;0.75;;;;;;;17.34;44.32;96078.91;5133310;57;20689;-74
2021/05/26 10:58:12;;;;;;;1.88;0.82;;;;;;;17.51;42.78;96090.78;5137925;57;20702;-74
2021/05/26 11:03:24;;;;;;;2.85;0.85;;;;;;;16.74;41.60;96072.16;5135610;57;20122;-74
2021/05/26 11:08:38;;;;;;;0.98;0.80;;;;;;;16.83;42.73;96064.28;5137522;57;20779;-74
2021/05/26 11:14:01;;;;;;;1.08;0.75;;;;;;;16.56;43.37;96073.44;5128768;57;20573;-74
2021/05/26 11:19:14;;;;;;;1.52;0.80;;;;;;;15.81;45.49;96079.91;5136165;57;20783;-74
2021/05/26 11:24:18;;;;;;;1.20;0.55;;;;;;;14.74;49.37;96081.91;5136148;57;20127;-74
2021/05/26 11:29:32;;;;;;;0.50;0.50;;;;;;;14.81;51.96;96084.25;5141060;57;20148;-74
2021/05/26 11:34:35;;;;;;;0.75;0.75;;;;;;;14.46;53.81;96064.25;5137346;57;20118;-73
2021/05/26 11:39:38;;;;;;;0.65;0.65;;;;;;;14.61;55.03;96073.25;5139984;57;20117;-73
2021/05/26 11:44:45;;;;;;;3.70;0.80;;;;;;;15.04;52.01;96069.19;5140490;57;20772;-72
2021/05/26 11:49:48;;;;;;;0.50;0.50;;;;;;;16.07;49.06;96054.66;5138039;57;20130;-72
2021/05/26 11:54:58;;;;;;;0.88;0.88;;;;;;;16.78;48.84;96056.69;5140240;57;20135;-74
2021/05/26 12:00:05;;;;;;;0.43;0.38;;;;;;;16.31;48.41;96052.13;5140396;57;20536;-74
2021/05/26 12:05:08;;;;;;;3.80;0.60;;;;;;;17.15;48.09;96059.91;5136875;57;20121;-74
2021/05/26 12:10:12;;;;;;;1.42;0.70;;;;;;;16.82;47.15;96053.66;5136556;57;20126;-74
2021/05/26 12:15:15;;;;;;;0.85;0.85;;;;;;;17.56;46.84;96071.22;5134235;57;20875;-74
2021/05/26 12:20:18;;;;;;;2.03;0.80;;;;;;;18.02;44.62;96059.31;5133476;57;20218;-74
2021/05/26 12:25:21;;;;;;;0.80;0.80;;;;;;;17.90;42.33;96067.00;5139449;57;20135;-74
2021/05/26 12:30:27;;;;;;;0.88;0.80;;;;;;;18.82;44.12;96068.09;5135283;57;20135;-74
2021/05/26 12:35:30;;;;;;;1.13;1.00;;;;;;;18.74;43.22;96058.78;5137013;57;20654;-74
2021/05/26 12:40:36;;;;;;;1.02;1.02;;;;;;;18.96;40.95;96055.75;5135405;57;20309;-74
2021/05/26 12:45:43;;;;;;;1.15;0.88;;;;;;;18.73;45.72;96057.25;5136454;57;20122;-74
2021/05/26 12:50:46;;;;;;;7.15;1.50;;;;;;;17.12;49.05;96071.34;5139823;57;20617;-74
2021/05/26 12:55:55;;;;;;;3.97;1.55;;;;;;;16.49;52.16;96068.34;5139994;57;20118;-74
2021/05/26 13:01:08;;;;;;;2.63;1.40;;;;;;;15.95;54.93;96083.75;5139824;57;20126;-74
2021/05/26 13:06:15;;;;;;;3.90;1.27;;;;;;;15.57;53.25;96087.94;5136403;57;20274;-74
2021/05/26 13:11:18;;;;;;;6.50;1.40;;;;;;;15.81;54.19;96090.31;5137448;57;20129;-75
2021/05/26 13:16:21;;;;;;;2.95;1.60;;;;;;;15.86;53.89;96095.13;5137586;57;20127;-74
2021/05/26 13:21:24;;;;;;;6.07;1.70;;;;;;;15.96;55.13;96093.66;5129990;57;20187;-74
2021/05/26 13:26:27;;;;;;;2.78;1.40;;;;;;;15.39;54.99;96086.34;5138240;57;20130;-74
2021/05/26 13:31:31;;;;;;;1.88;1.27;;;;;;;15.27;55.51;96095.13;5139428;57;20170;-74
2021/05/26 13:36:36;;;;;;;3.42;1.55;;;;;;;15.11;56.53;96090.25;5137949;57;20644;-74
2021/05/26 13:41:42;;;;;;;5.47;1.70;;;;;;;14.95;57.12;96091.66;5139264;57;20130;-74
2021/05/26 13:46:45;;;;;;;2.88;1.33;;;;;;;15.04;57.56;96091.44;5131065;57;20113;-74
2021/05/26 13:51:47;;;;;;;3.80;1.50;;;;;;;15.26;58.47;96088.81;5139061;57;20139;-74
2021/05/26 13:56:51;;;;;;;5.30;1.98;;;;;;;15.21;58.08;96083.22;5139542;57;20130;-74
2021/05/26 14:01:53;;;;;;;1.40;1.20;;;;;;;15.68;57.53;96083.19;5138455;57;20591;-74
2021/05/26 14:06:56;;;;;;;2.88;1.40;;;;;;;16.09;56.37;96088.34;5118539;57;20154;-74
2021/05/26 14:12:01;;;;;;;1.85;1.60;;;;;;;16.29;57.29;96094.47;5117771;57;20127;-73
2021/05/26 14:17:04;;;;;;;2.17;1.63;;;;;;;16.30;54.88;96095.22;5118817;57;20736;-74
2021/05/26 14:22:07;;;;;;;6.38;2.63;;;;;;;16.52;57.03;96089.69;5118862;58;20105;-74
2021/05/26 14:27:12;;;;;;;6.22;2.20;;;;;;;16.60;54.59;96085.09;5131232;57;20122;-74
2021/05/26 14:32:15;;;;;;;6.63;2.15;;;;;;;15.85;54.40;96088.03;5137971;57;20257;-74
2021/05/26 14:37:19;;;;;;;3.55;1.90;;;;;;;16.29;54.94;96096.47;5132824;57;20709;-74
2021/05/26 14:42:22;;;;;;;1.50;1.40;;;;;;;15.21;56.57;96094.34;5131802;57;20170;-74
2021/05/26 14:47:26;;;;;;;4.93;1.85;;;;;;;15.27;57.87;96095.88;5135808;57;20121;-74
2021/05/26 14:52:29;;;;;;;4.32;2.10;;;;;;;14.92;58.68;96101.00;5129801;57;20148;-74
2021/05/26 14:57:32;;;;;;;4.68;1.70;;;;;;;15.50;58.70;96083.63;5138813;57;20131;-74
2021/05/26 15:02:35;;;;;;;7.20;2.58;;;;;;;15.84;58.49;96094.88;5151293;57;20113;-74
2021/05/26 15:07:38;;;;;;;4.68;2.00;;;;;;;15.55;57.27;96087.69;5142430;57;20121;-74
2021/05/26 15:12:41;;;;;;;4.18;2.15;;;;;;;14.96;59.41;96087.63;5134229;57;20134;-74
2021/05/26 15:17:44;;;;;;;3.67;1.85;;;;;;;14.96;60.03;96084.84;5139406;57;20833;-74
2021/05/26 15:22:47;;;;;;;5.00;2.33;;;;;;;14.20;62.54;96076.16;5138718;57;20586;-74
2021/05/26 15:27:49;;;;;;;3.88;1.80;;;;;;;15.11;62.86;96085.44;5137647;57;20126;-74
2021/05/26 15:32:55;;;;;;;3.47;1.88;;;;;;;14.92;60.98;96084.31;5138427;57;20126;-74
2021/05/26 15:37:59;;;;;;;4.93;2.40;;;;;;;14.51;63.21;96080.22;5135977;57;20126;-74
2021/05/26 15:43:02;;;;;;;2.95;2.08;;;;;;;14.48;64.79;96084.75;5140815;57;20131;-73
2021/05/26 15:48:05;;;;;;;5.55;2.30;;;;;;;14.38;67.11;96074.31;5140969;57;20125;-74
2021/05/26 15:53:08;;;;;;;4.03;1.73;;;;;;;14.63;66.64;96062.38;5138141;57;20130;-74
2021/05/26 15:58:12;;;;;;;6.90;2.40;;;;;;;14.45;66.94;96062.75;5140511;57;20130;-74
2021/05/26 16:03:16;;;;;;;4.60;2.00;;;;;;;14.52;68.06;96062.31;5140691;57;20180;-73
2021/05/26 16:08:18;;;;;;;3.80;2.38;;;;;;;14.34;68.23;96058.63;5139426;57;20657;-74
2021/05/26 16:13:21;;;;;;;5.05;2.05;;;;;;;14.28;68.55;96065.34;5122722;57;20126;-71
2021/05/26 16:18:23;;;;;;;2.80;2.15;;;;;;;14.17;69.14;96057.69;5127626;57;20135;-71
2021/05/26 16:23:29;;;;;;;9.13;2.38;;;;;;;13.94;71.70;96066.31;5131059;57;20117;-72
2021/05/26 16:28:32;;;;;;;4.95;1.98;;;;;;;14.21;71.60;96043.56;5139342;57;20125;-73
2021/05/26 16:33:35;;;;;;;4.95;1.95;;;;;;;13.92;71.54;96057.72;5139185;57;20130;-72
2021/05/26 16:38:38;;;;;;;4.25;2.28;;;;;;;13.70;72.26;96066.59;5136023;57;20220;-73
2021/05/26 16:43:48;;;;;;;6.70;2.45;;;;;;;13.86;72.38;96060.44;5133897;57;20152;-72
2021/05/26 16:48:50;;;;;;;4.10;2.45;;;;;;;14.10;71.53;96054.59;5135807;57;20187;-72
2021/05/26 16:53:59;;;;;;;7.65;2.65;;;;;;;13.51;74.59;96065.34;5135839;57;20130;-72
2021/05/26 16:59:04;;;;;;;8.25;2.90;;;;;;;13.79;72.55;96066.44;5130564;57;20117;-72
2021/05/26 17:04:09;;;;;;;4.22;2.05;;;;;;;13.65;72.69;96065.28;5122577;57;20324;-72
2021/05/26 17:09:12;;;;;;;5.93;2.25;;;;;;;13.74;73.04;96074.69;5138818;57;20117;-72
2021/05/26 17:14:15;;;;;;;4.15;2.60;;;;;;;13.50;73.86;96070.13;5121986;57;20122;-72
2021/05/26 17:19:19;;;;;;;4.65;2.10;;;;;;;13.57;71.59;96074.50;5138701;57;20678;-72
2021/05/26 17:24:22;;;;;;;8.48;2.70;;;;;;;13.13;73.75;96068.44;5138187;57;20108;-72
2021/05/26 17:29:25;;;;;;;5.38;2.20;;;;;;;13.07;73.77;96067.59;5139221;57;20111;-71
2021/05/26 17:34:28;;;;;;;3.38;1.98;;;;;;;12.96;72.90;96068.16;5138490;57;20531;-72
2021/05/26 17:39:31;;;;;;;2.40;1.50;;;;;;;12.91;72.81;96069.63;5129947;57;20234;-71
2021/05/26 17:44:33;;;;;;;5.68;1.92;;;;;;;12.83;72.51;96081.59;5144405;57;20117;-72
2021/05/26 17:49:36;;;;;;;4.50;1.85;;;;;;;12.76;73.49;96074.44;5136966;57;20112;-72
2021/05/26 17:54:39;;;;;;;3.20;1.83;;;;;;;12.76;73.15;96070.91;5127762;57;20121;-72
2021/05/26 17:59:42;;;;;;;6.00;1.80;;;;;;;12.59;73.86;96076.22;5125061;57;20186;-72
2021/05/26 18:04:44;;;;;;;3.63;1.48;;;;;;;12.37;74.94;96098.03;5135765;57;21012;-72
2021/05/26 18:09:48;;;;;;;1.40;1.30;;;;;;;12.54;74.37;96084.44;5137265;57;20117;-72
2021/05/26 18:14:51;;;;;;;2.47;1.35;;;;;;;12.35;74.40;96086.66;5137629;57;20334;-72
2021/05/26 18:19:54;;;;;;;2.78;1.17;;;;;;;12.37;74.51;96084.19;5136936;57;20591;-72
2021/05/26 18:24:56;;;;;;;1.35;1.25;;;;;;;12.28;75.91;96092.59;5118946;57;20227;-72
2021/05/26 18:29:59;;;;;;;1.40;1.25;;;;;;;12.17;76.03;96093.19;5136382;57;20311;-73
2021/05/26 18:35:03;;;;;;;4.28;1.40;;;;;;;12.15;76.50;96092.91;5121334;57;20108;-72
2021/05/26 18:40:07;;;;;;;2.85;1.30;;;;;;;12.10;76.68;96081.72;5137262;57;20328;-72
2021/05/26 18:45:11;;;;;;;3.90;1.25;;;;;;;11.99;76.53;96089.81;5129679;57;20214;-72
2021/05/26 18:50:15;;;;;;;3.58;1.33;;;;;;;11.96;77.08;96088.03;5123831;57;20117;-72
2021/05/26 18:55:17;;;;;;;2.90;1.50;;;;;;;11.91;77.84;96083.94;5129452;57;20767;-72
2021/05/26 19:00:23;;;;;;;2.50;1.27;;;;;;;11.83;78.44;96096.59;5130104;57;20216;-72
2021/05/26 19:05:28;;;;;;;1.30;1.20;;;;;;;11.84;77.67;96091.84;5139171;57;20125;-72
2021/05/26 19:10:32;;;;;;;2.30;1.23;;;;;;;11.86;78.51;96114.28;5138006;57;20239;-71
2021/05/26 19:15:35;;;;;;;3.22;1.80;;;;;;;11.72;79.28;96106.69;5131651;57;20134;-71
2021/05/26 19:20:38;;;;;;;3.90;1.60;;;;;;;11.68;80.22;96117.19;5131316;57;20112;-72
2021/05/26 19:25:41;;;;;;;2.67;1.60;;;;;;;11.68;79.83;96119.97;5142942;57;20336;-72
2021/05/26 19:30:44;;;;;;;1.38;1.27;;;;;;;11.52;80.04;96123.91;5143936;57;20139;-72
2021/05/26 19:35:51;;;;;;;2.05;1.35;;;;;;;11.52;81.10;96132.97;5131579;57;20095;-72
2021/05/26 19:40:54;;;;;;;1.33;1.17;;;;;;;11.62;80.18;96138.44;5141149;57;20113;-71
2021/05/26 19:45:57;;;;;;;1.40;1.30;;;;;;;11.50;81.00;96134.69;5137269;57;20117;-72
2021/05/26 19:51:00;;;;;;;2.67;1.13;;;;;;;11.49;80.74;96144.22;5142637;57;20190;-72
2021/05/26 19:56:03;;;;;;;1.98;1.20;;;;;;;11.40;81.46;96156.13;5123988;57;20336;-72
2021/05/26 20:01:07;;;;;;;1.50;1.40;;;;;;;11.28;82.20;96157.13;5124028;57;20161;-73
2021/05/26 20:06:11;;;;;;;2.40;1.20;;;;;;;11.28;82.34;96156.38;5128214;57;20127;-72
2021/05/26 20:11:13;;;;;;;1.83;1.05;;;;;;;11.24;82.36;96151.00;5137111;57;20112;-71
2021/05/26 20:16:17;;;;;;;1.33;1.13;;;;;;;11.29;82.48;96161.41;5130950;57;20113;-72
2021/05/26 20:21:20;;;;;;;4.25;1.20;;;;;;;11.20;82.48;96164.25;5139673;57;20231;-72
2021/05/26 20:26:23;;;;;;;1.48;1.20;;;;;;;11.14;82.31;96171.66;5139199;57;20117;-72
2021/05/26 20:31:25;;;;;;;3.67;1.95;;;;;;;10.98;83.78;96190.63;5138646;57;20113;-72
2021/05/26 20:36:28;;;;;;;1.20;1.10;;;;;;;10.56;79.21;96210.00;5139552;57;20139;-71
2021/05/26 20:41:31;;;;;;;2.60;1.13;;;;;;;10.23;79.53;96209.88;5136376;57;20702;-72
2021/05/26 20:46:33;;;;;;;0.80;0.80;;;;;;;10.01;80.26;96223.06;5136535;57;20644;-72
2021/05/26 20:51:36;;;;;;;1.33;0.80;;;;;;;9.72;79.33;96231.81;5137890;57;20121;-72
2021/05/26 20:56:38;;;;;;;0.70;0.70;;;;;;;9.64;80.79;96230.56;5137713;57;20126;-72
2021/05/26 21:01:41;;;;;;;0.65;0.65;;;;;;;9.69;82.25;96243.75;5135584;57;20117;-73
2021/05/26 21:06:44;;;;;;;0.80;0.80;;;;;;;9.56;80.45;96245.88;5129291;57;20117;-73
2021/05/26 21:11:47;;;;;;;0.75;0.60;;;;;;;9.56;80.16;96251.41;5127214;57;20138;-73
2021/05/26 21:16:51;;;;;;;0.80;0.80;;;;;;;9.51;79.61;96252.00;5137311;57;20197;-72
2021/05/26 21:21:56;;;;;;;0.82;0.82;;;;;;;9.45;80.99;96256.59;5137905;57;20116;-72
2021/05/26 21:26:59;;;;;;;7.63;0.90;;;;;;;9.47;81.20;96267.94;5138029;57;20218;-73
2021/05/26 21:32:02;;;;;;;0.60;0.60;;;;;;;9.23;80.81;96267.69;5127659;57;20121;-73
2021/05/26 21:37:04;;;;;;;0.90;0.90;;;;;;;9.30;82.09;96264.66;5128975;57;20215;-73
2021/05/26 21:42:07;;;;;;;3.13;0.93;;;;;;;9.29;80.41;96270.66;5121232;57;20113;-73
2021/05/26 21:47:10;;;;;;;1.95;1.02;;;;;;;9.09;82.12;96267.50;5129499;57;20213;-73
2021/05/26 21:52:13;;;;;;;0.90;0.90;;;;;;;9.02;81.80;96273.28;5120517;57;20176;-73
2021/05/26 21:57:16;;;;;;;0.90;0.90;;;;;;;9.15;82.40;96277.47;5138487;57;20533;-72
2021/05/26 22:02:18;;;;;;;1.00;0.90;;;;;;;9.05;83.40;96278.66;5113896;57;20235;-73
2021/05/26 22:07:24;;;;;;;0.60;0.60;;;;;;;9.03;82.76;96278.34;5137661;57;20117;-73
2021/05/26 22:12:28;;;;;;;0.90;0.90;;;;;;;9.14;82.21;96275.16;5121394;57;20634;-73
2021/05/26 22:17:31;;;;;;;1.80;0.90;;;;;;;8.98;82.40;96284.44;5116885;57;20231;-73
2021/05/26 22:22:34;;;;;;;0.80;0.80;;;;;;;8.94;83.42;96272.00;5140411;57;20208;-73
2021/05/26 22:27:38;;;;;;;0.82;0.82;;;;;;;8.90;82.88;96277.69;5141024;57;20653;-73
2021/05/26 22:32:42;;;;;;;2.08;0.85;;;;;;;9.04;83.72;96274.38;5132872;57;20129;-73
2021/05/26 22:37:48;;;;;;;0.77;0.77;;;;;;;8.87;82.72;96289.59;5133711;57;20367;-73
2021/05/26 22:42:51;;;;;;;0.80;0.80;;;;;;;8.70;82.55;96271.75;5133000;57;20753;-73
2021/05/26 22:47:55;;;;;;;0.80;0.80;;;;;;;8.89;82.71;96276.13;5132742;57;20117;-73
2021/05/26 22:52:58;;;;;;;0.90;0.90;;;;;;;8.88;83.63;96273.84;5125020;57;20117;-73
2021/05/26 22:58:01;;;;;;;0.88;0.88;;;;;;;8.92;83.90;96266.97;5125168;57;20228;-73
2021/05/26 23:08:28;;;;;;;0.80;0.80;;;;;;;9.04;84.12;96281.88;5133271;57;20231;-73
2021/05/26 23:13:32;;;;;;;0.98;0.90;;;;;;;9.22;83.76;96281.94;5124986;57;20126;-73
2021/05/26 23:18:35;;;;;;;0.75;0.75;;;;;;;9.16;83.65;96275.47;5124506;57;20116;-74
2021/05/26 23:23:37;;;;;;;1.27;1.08;;;;;;;9.05;83.92;96280.63;5124551;57;20121;-73
2021/05/26 23:28:40;;;;;;;0.80;0.80;;;;;;;9.11;84.07;96298.13;5141190;57;20350;-73
2021/05/26 23:33:43;;;;;;;0.75;0.75;;;;;;;8.88;84.01;96288.38;5124487;57;20144;-73
2021/05/26 23:38:46;;;;;;;1.58;1.10;;;;;;;9.06;84.19;96295.97;5141103;57;20636;-73
2021/05/26 23:43:49;;;;;;;0.85;0.85;;;;;;;9.01;84.47;96288.28;5132659;57;20231;-73
2021/05/26 23:48:51;;;;;;;1.00;1.00;;;;;;;9.18;83.55;96295.09;5132514;57;20292;-74
2021/05/26 23:53:54;;;;;;;1.45;1.10;;;;;;;9.05;84.19;96291.66;5124166;57;20130;-73
2021/05/26 23:58:57;;;;;;;1.38;1.25;;;;;;;9.22;83.67;96287.47;5132321;57;20667;-73
